Rorichmoor — V2BV7 — position and weather

sailwx.info

Track history (hours):
 
Tides and Currents Weather Stations Pressure Air Temp Water Temp Dewpoint Dewpoint Depression Visibility Wind Speed Wind Dir Waves Ship Positions

Rorichmoor

Last reported at 2017-Jan-20 18:32 UTC. Time now 2017-Jan-20 20:11 UTC.
Position N 35°60' W 005°26'.

Length 80 m; draft 4.2 m.

Type: Cargo ship. MMSI: 304938000.

Date/timePositionNaut miles runAvg speedWind from/ knotsBaromVisibWave heightAir tempDewpointWater temp
2017-Jan-20 18:32N 35°60' W 005°26'9 9.1
2017-Jan-20 17:33N 36°01' W 005°15'215 9.8
2017-Jan-19 19:28N 37°14' W 001°03'1010.4
2017-Jan-19 18:32N 37°20' W 000°53'2010.2
2017-Jan-19 16:33N 37°34' W 000°34'9 9.3
2017-Jan-19 15:32N 37°41' W 000°27'159 9.3
2017-Jan-18 22:33N 39°53' E 001°27'10 9.9
2017-Jan-18 21:33N 40°01' E 001°35'10 9.7
2017-Jan-18 20:33N 40°08' E 001°42'9 9.4
2017-Jan-18 19:33N 40°16' E 001°49'10 9.8
2017-Jan-18 18:34N 40°24' E 001°57'1010.1
2017-Jan-18 17:33N 40°32' E 002°05'2110.3
2017-Jan-18 15:33N 40°49' E 002°20'1010.2
2017-Jan-18 14:33N 40°57' E 002°28'  
2017-Jan-12 15:28N 41°15' E 002°46'9 9.2
2017-Jan-12 14:28N 41°08' E 002°39'9 9.3
2017-Jan-12 13:33N 41°01' E 002°33'10 9.6
2017-Jan-12 12:33N 40°53' E 002°26'10 9.9
2017-Jan-12 11:33N 40°45' E 002°18'10 9.7
2017-Jan-12 10:33N 40°37' E 002°11'10 9.8
2017-Jan-12 09:33N 40°29' E 002°04'1010.1
2017-Jan-12 08:33N 40°20' E 001°57'10 9.8
2017-Jan-12 07:33N 40°12' E 001°49'10 9.5
2017-Jan-12 06:33N 40°05' E 001°42'9 9.3
2017-Jan-12 05:33N 39°57' E 001°35'161 7.3
2017-Jan-11 07:33N 37°43' W 000°21'5 5.4
2017-Jan-11 06:33N 37°39' W 000°25'9 8.6
2017-Jan-11 05:33N 37°32' W 000°32'9 8.9
2017-Jan-11 04:31N 37°26' W 000°41'9 9.0
2017-Jan-11 03:33N 37°20' W 000°49'  
Track history (hours):
 
Tides and Currents Weather Stations Pressure Air Temp Water Temp Dewpoint Dewpoint Depression Visibility Wind Speed Wind Dir Waves Ship Positions

Rorichmoor

Last reported at 2017-Jan-20 18:32 UTC. Time now 2017-Jan-20 20:11 UTC.
Position N 35°60' W 005°26'.

Length 80 m; draft 4.2 m.

Type: Cargo ship. MMSI: 304938000.

Date/timePositionNaut miles runAvg speedWind from/ knotsBaromVisibWave heightAir tempDewpointWater temp
2017-Jan-20 18:32N 35°60' W 005°26'9 9.1
2017-Jan-20 17:33N 36°01' W 005°15'215 9.8
2017-Jan-19 19:28N 37°14' W 001°03'1010.4
2017-Jan-19 18:32N 37°20' W 000°53'2010.2
2017-Jan-19 16:33N 37°34' W 000°34'9 9.3
2017-Jan-19 15:32N 37°41' W 000°27'159 9.3
2017-Jan-18 22:33N 39°53' E 001°27'10 9.9
2017-Jan-18 21:33N 40°01' E 001°35'10 9.7
2017-Jan-18 20:33N 40°08' E 001°42'9 9.4
2017-Jan-18 19:33N 40°16' E 001°49'10 9.8
2017-Jan-18 18:34N 40°24' E 001°57'1010.1
2017-Jan-18 17:33N 40°32' E 002°05'2110.3
2017-Jan-18 15:33N 40°49' E 002°20'1010.2
2017-Jan-18 14:33N 40°57' E 002°28'  
2017-Jan-12 15:28N 41°15' E 002°46'9 9.2
2017-Jan-12 14:28N 41°08' E 002°39'9 9.3
2017-Jan-12 13:33N 41°01' E 002°33'10 9.6
2017-Jan-12 12:33N 40°53' E 002°26'10 9.9
2017-Jan-12 11:33N 40°45' E 002°18'10 9.7
2017-Jan-12 10:33N 40°37' E 002°11'10 9.8
2017-Jan-12 09:33N 40°29' E 002°04'1010.1
2017-Jan-12 08:33N 40°20' E 001°57'10 9.8
2017-Jan-12 07:33N 40°12' E 001°49'10 9.5
2017-Jan-12 06:33N 40°05' E 001°42'9 9.3
2017-Jan-12 05:33N 39°57' E 001°35'161 7.3
2017-Jan-11 07:33N 37°43' W 000°21'5 5.4
2017-Jan-11 06:33N 37°39' W 000°25'9 8.6
2017-Jan-11 05:33N 37°32' W 000°32'9 8.9
2017-Jan-11 04:31N 37°26' W 000°41'9 9.0
2017-Jan-11 03:33N 37°20' W 000°49'  

Dump ship's entire track history